Time;durP1;ratioP1;P1;durP2;ratioP2;P2;SDS_P1;SDS_P2;PMS_P1;PMS_P2;Temp;Humidity;BMP_temperature;BMP_pressure;BME280_temperature;BME280_humidity;BME280_pressure;Samples;Min_cycle;Max_cycle;Signal;HPM_P1;HPM_P2
2023/07/03 00:01:32;;;;;;;17.63;12.03;;;;;;;;;;5012908;28;20617;-68
2023/07/03 00:04:01;;;;;;;19.10;11.83;;;;;;;;;;5011958;28;20628;-69
2023/07/03 00:06:30;;;;;;;24.07;11.17;;;;;;;;;;5013806;28;20614;-68
2023/07/03 00:08:58;;;;;;;16.70;10.93;;;;;;;;;;5014044;28;20657;-67
2023/07/03 00:11:26;;;;;;;15.83;10.10;;;;;;;;;;5004635;28;20755;-66
2023/07/03 00:13:54;;;;;;;22.27;11.93;;;;;;;;;;5008327;28;20663;-66
2023/07/03 00:16:22;;;;;;;16.67;11.10;;;;;;;;;;5016533;28;21071;-66
2023/07/03 00:18:52;;;;;;;16.40;11.10;;;;;;;;;;5013920;28;21176;-65
2023/07/03 00:21:20;;;;;;;15.87;10.43;;;;;;;;;;5013643;28;20669;-69
2023/07/03 00:23:48;;;;;;;14.50;10.33;;;;;;;;;;5013770;28;20639;-69
2023/07/03 00:26:16;;;;;;;21.23;11.93;;;;;;;;;;5013443;28;20647;-69
2023/07/03 00:28:45;;;;;;;15.40;10.60;;;;;;;;;;5013227;28;20639;-70
2023/07/03 00:31:13;;;;;;;15.23;10.00;;;;;;;;;;5012136;28;20633;-72
2023/07/03 00:33:41;;;;;;;18.00;10.03;;;;;;;;;;5013271;28;20624;-69
2023/07/03 00:36:11;;;;;;;16.43;10.73;;;;;;;;;;5013012;28;20624;-72
2023/07/03 00:38:39;;;;;;;22.43;11.50;;;;;;;;;;5011450;28;20956;-69
2023/07/03 00:41:07;;;;;;;21.30;12.33;;;;;;;;;;5017487;28;21225;-67
2023/07/03 00:43:41;;;;;;;17.50;10.70;;;;;;;;;;5017727;28;20624;-67
2023/07/03 00:46:09;;;;;;;16.30;9.90;;;;;;;;;;5013851;28;20587;-67
2023/07/03 00:48:38;;;;;;;17.00;10.50;;;;;;;;;;4996169;28;20651;-66
2023/07/03 00:51:07;;;;;;;22.27;11.73;;;;;;;;;;5011019;28;21230;-67
2023/07/03 00:53:37;;;;;;;14.00;9.50;;;;;;;;;;5012661;28;21200;-67
2023/07/03 00:56:05;;;;;;;19.00;10.90;;;;;;;;;;5013102;28;20644;-66
2023/07/03 00:58:34;;;;;;;19.20;10.60;;;;;;;;;;5011466;28;20632;-67
2023/07/03 01:01:07;;;;;;;22.10;11.60;;;;;;;;;;5012527;28;20635;-66
2023/07/03 01:03:37;;;;;;;21.53;10.57;;;;;;;;;;5011728;28;20619;-65
2023/07/03 01:06:06;;;;;;;18.67;11.10;;;;;;;;;;5012878;28;20651;-65
2023/07/03 01:08:34;;;;;;;13.90;10.10;;;;;;;;;;5012233;28;20632;-66
2023/07/03 01:11:04;;;;;;;17.40;9.80;;;;;;;;;;5005090;28;20679;-65
2023/07/03 01:13:35;;;;;;;21.30;10.93;;;;;;;;;;5010671;28;20625;-67
2023/07/03 01:16:06;;;;;;;23.83;10.80;;;;;;;;;;5011878;28;20631;-67
2023/07/03 01:18:35;;;;;;;20.37;10.90;;;;;;;;;;5012930;28;20607;-67
2023/07/03 01:21:06;;;;;;;20.70;11.30;;;;;;;;;;5012513;28;20615;-66
2023/07/03 01:23:37;;;;;;;21.23;11.10;;;;;;;;;;5008307;28;20609;-67
2023/07/03 01:26:07;;;;;;;20.13;11.13;;;;;;;;;;5012212;28;20617;-67
2023/07/03 01:28:36;;;;;;;18.10;9.77;;;;;;;;;;5012562;28;20615;-67
2023/07/03 01:31:07;;;;;;;20.17;10.97;;;;;;;;;;5011305;28;20772;-67
2023/07/03 01:33:40;;;;;;;15.43;9.37;;;;;;;;;;4995355;28;20958;-66
2023/07/03 01:36:11;;;;;;;22.20;11.03;;;;;;;;;;5011249;28;20603;-66
2023/07/03 01:38:41;;;;;;;28.27;12.13;;;;;;;;;;5005090;28;20612;-66
2023/07/03 01:41:12;;;;;;;19.20;11.50;;;;;;;;;;5012953;28;20613;-66
2023/07/03 01:43:41;;;;;;;17.67;10.73;;;;;;;;;;5013314;28;21161;-67
2023/07/03 01:46:10;;;;;;;23.80;12.30;;;;;;;;;;5032039;28;20618;-67
2023/07/03 01:48:38;;;;;;;16.67;10.57;;;;;;;;;;5031756;28;20677;-66
2023/07/03 01:51:09;;;;;;;16.77;10.67;;;;;;;;;;5029896;28;21233;-66
2023/07/03 01:53:41;;;;;;;21.47;11.80;;;;;;;;;;5012357;28;20974;-66
2023/07/03 01:56:13;;;;;;;16.77;10.97;;;;;;;;;;5012386;28;20611;-66
2023/07/03 01:58:44;;;;;;;20.47;11.90;;;;;;;;;;5011118;28;21507;-67
2023/07/03 02:01:13;;;;;;;16.57;11.40;;;;;;;;;;5011306;28;21018;-66
2023/07/03 02:03:43;;;;;;;21.53;11.10;;;;;;;;;;5010228;28;20625;-66
2023/07/03 02:06:15;;;;;;;17.33;10.33;;;;;;;;;;5011586;28;20639;-66
2023/07/03 02:08:44;;;;;;;20.70;11.83;;;;;;;;;;5012225;28;21096;-66
2023/07/03 02:11:18;;;;;;;21.57;12.57;;;;;;;;;;5010011;28;20687;-66
2023/07/03 02:13:49;;;;;;;16.20;10.73;;;;;;;;;;5011787;28;20615;-66
2023/07/03 02:16:18;;;;;;;23.47;11.10;;;;;;;;;;5010112;28;20633;-66
2023/07/03 02:18:47;;;;;;;14.93;9.90;;;;;;;;;;5010543;28;21162;-66
2023/07/03 02:21:15;;;;;;;18.20;11.50;;;;;;;;;;5005751;28;20618;-66
2023/07/03 02:23:44;;;;;;;20.33;10.80;;;;;;;;;;5012179;28;20633;-66
2023/07/03 02:26:15;;;;;;;18.53;10.47;;;;;;;;;;5010043;28;20609;-66
2023/07/03 02:28:45;;;;;;;19.63;10.70;;;;;;;;;;5011589;28;20967;-66
2023/07/03 02:31:13;;;;;;;19.40;11.03;;;;;;;;;;5010648;28;20679;-66
2023/07/03 02:33:41;;;;;;;20.80;10.83;;;;;;;;;;5011600;28;20678;-66
2023/07/03 02:36:09;;;;;;;18.40;10.60;;;;;;;;;;5010460;28;20626;-66
2023/07/03 02:38:38;;;;;;;24.20;11.70;;;;;;;;;;5011380;28;20974;-66
2023/07/03 02:41:06;;;;;;;16.13;9.67;;;;;;;;;;5011567;28;20937;-67
2023/07/03 02:43:34;;;;;;;17.13;9.93;;;;;;;;;;4995223;28;20626;-66
2023/07/03 02:46:08;;;;;;;20.23;10.13;;;;;;;;;;5011826;28;20654;-67
2023/07/03 02:48:36;;;;;;;20.80;10.63;;;;;;;;;;5010904;28;20658;-66
2023/07/03 02:51:05;;;;;;;15.00;10.10;;;;;;;;;;5009990;28;20667;-66
2023/07/03 02:53:34;;;;;;;17.87;10.37;;;;;;;;;;5010139;28;20628;-66
2023/07/03 02:56:08;;;;;;;20.67;11.40;;;;;;;;;;5009509;28;20968;-66
2023/07/03 02:58:39;;;;;;;18.20;11.13;;;;;;;;;;5011222;28;21162;-67
2023/07/03 03:01:09;;;;;;;18.70;10.03;;;;;;;;;;5013746;28;20616;-67
2023/07/03 03:03:37;;;;;;;15.70;9.80;;;;;;;;;;5010904;28;20634;-67
2023/07/03 03:06:06;;;;;;;18.00;10.33;;;;;;;;;;5003255;28;20637;-66
2023/07/03 03:08:34;;;;;;;19.50;10.70;;;;;;;;;;5013941;28;20698;-67
2023/07/03 03:11:04;;;;;;;17.90;9.77;;;;;;;;;;5014313;28;20675;-66
2023/07/03 03:13:35;;;;;;;18.73;10.57;;;;;;;;;;5013150;28;20612;-66
2023/07/03 03:16:04;;;;;;;20.83;11.00;;;;;;;;;;5014434;28;20639;-66
2023/07/03 03:18:33;;;;;;;16.90;10.43;;;;;;;;;;5014643;28;20628;-64
2023/07/03 03:21:01;;;;;;;15.77;10.27;;;;;;;;;;5001794;28;20629;-63
2023/07/03 03:23:30;;;;;;;17.63;11.10;;;;;;;;;;5014072;28;20629;-64
2023/07/03 03:25:58;;;;;;;18.27;10.30;;;;;;;;;;5014649;28;20663;-64
2023/07/03 03:28:26;;;;;;;18.10;10.70;;;;;;;;;;5013885;28;20632;-63
2023/07/03 03:30:55;;;;;;;14.37;9.53;;;;;;;;;;5014421;28;20664;-63
2023/07/03 03:33:23;;;;;;;17.60;10.63;;;;;;;;;;4998062;28;20654;-64
2023/07/03 03:35:53;;;;;;;19.30;10.90;;;;;;;;;;5014907;28;20617;-63
2023/07/03 03:38:21;;;;;;;17.33;10.97;;;;;;;;;;5014550;28;20625;-63
2023/07/03 03:40:55;;;;;;;19.30;10.60;;;;;;;;;;5014824;28;20624;-63
2023/07/03 03:43:25;;;;;;;17.43;10.40;;;;;;;;;;5013331;28;20604;-64
2023/07/03 03:45:57;;;;;;;16.10;10.67;;;;;;;;;;4996554;28;20991;-64
2023/07/03 03:48:27;;;;;;;19.47;10.90;;;;;;;;;;5001028;28;20712;-63
2023/07/03 03:50:56;;;;;;;22.07;11.83;;;;;;;;;;5014438;28;20651;-63
2023/07/03 03:53:25;;;;;;;19.90;10.83;;;;;;;;;;5013236;28;20674;-63
2023/07/03 03:55:54;;;;;;;19.33;11.23;;;;;;;;;;5013780;28;20595;-64
2023/07/03 03:58:22;;;;;;;13.67;9.63;;;;;;;;;;5013419;28;20625;-63
2023/07/03 04:00:51;;;;;;;16.87;10.70;;;;;;;;;;5014383;28;21310;-64
2023/07/03 04:03:19;;;;;;;17.00;10.30;;;;;;;;;;5014124;28;20631;-64
2023/07/03 04:05:48;;;;;;;16.80;10.60;;;;;;;;;;5014059;28;20690;-63
2023/07/03 04:08:18;;;;;;;15.50;10.50;;;;;;;;;;4997721;28;20629;-64
2023/07/03 04:10:46;;;;;;;23.03;11.90;;;;;;;;;;5007880;28;20636;-63
2023/07/03 04:13:14;;;;;;;20.87;10.43;;;;;;;;;;4998747;28;20711;-65
2023/07/03 04:15:51;;;;;;;18.53;12.00;;;;;;;;;;5014026;28;20984;-64
2023/07/03 04:18:20;;;;;;;18.80;10.83;;;;;;;;;;5014198;28;20693;-64
2023/07/03 04:20:48;;;;;;;16.60;10.50;;;;;;;;;;5015370;28;20612;-64
2023/07/03 04:23:18;;;;;;;20.43;11.20;;;;;;;;;;5015096;28;20667;-64
2023/07/03 04:25:46;;;;;;;16.73;10.57;;;;;;;;;;5015369;28;20627;-64
2023/07/03 04:28:15;;;;;;;16.50;10.70;;;;;;;;;;5015094;28;20980;-64
2023/07/03 04:30:43;;;;;;;14.43;10.47;;;;;;;;;;5014725;28;20651;-62
2023/07/03 04:33:11;;;;;;;16.00;11.13;;;;;;;;;;5014807;28;21216;-62
2023/07/03 04:35:39;;;;;;;17.63;10.60;;;;;;;;;;5014673;28;20628;-65
2023/07/03 04:38:08;;;;;;;20.57;10.93;;;;;;;;;;5014474;28;20641;-63
2023/07/03 04:40:38;;;;;;;15.63;10.23;;;;;;;;;;5014926;28;20633;-63
2023/07/03 04:43:07;;;;;;;18.70;10.87;;;;;;;;;;5014243;28;20590;-63
2023/07/03 04:45:40;;;;;;;19.43;10.77;;;;;;;;;;5011933;28;20623;-63
2023/07/03 04:48:09;;;;;;;25.33;10.53;;;;;;;;;;5014950;28;20670;-63
2023/07/03 04:50:37;;;;;;;16.17;11.00;;;;;;;;;;5014469;28;21109;-63
2023/07/03 04:53:05;;;;;;;15.80;9.93;;;;;;;;;;5014412;28;20663;-64
2023/07/03 04:55:34;;;;;;;15.53;9.40;;;;;;;;;;5012881;28;20669;-64
2023/07/03 04:58:04;;;;;;;17.93;10.13;;;;;;;;;;5014526;28;20635;-63
2023/07/03 05:00:33;;;;;;;18.53;10.70;;;;;;;;;;5013858;28;20635;-64
2023/07/03 05:03:02;;;;;;;14.87;11.10;;;;;;;;;;5006971;28;20982;-63
2023/07/03 05:05:30;;;;;;;18.93;10.93;;;;;;;;;;5007880;28;20650;-66
2023/07/03 05:07:58;;;;;;;19.63;11.80;;;;;;;;;;5017586;28;20678;-63
2023/07/03 05:10:27;;;;;;;16.30;10.27;;;;;;;;;;5003855;28;21235;-63
2023/07/03 05:12:55;;;;;;;22.47;11.10;;;;;;;;;;5013013;28;20656;-64
2023/07/03 05:15:25;;;;;;;11.60;8.93;;;;;;;;;;5013388;28;20602;-64
2023/07/03 05:17:54;;;;;;;19.03;11.37;;;;;;;;;;5012461;28;20612;-64
2023/07/03 05:20:25;;;;;;;16.00;10.00;;;;;;;;;;5013923;28;20633;-64
2023/07/03 05:22:55;;;;;;;17.57;10.83;;;;;;;;;;5013661;28;20579;-64
2023/07/03 05:25:23;;;;;;;18.63;10.67;;;;;;;;;;5014089;28;20623;-64
2023/07/03 05:27:51;;;;;;;19.40;10.10;;;;;;;;;;5011375;28;20636;-63
2023/07/03 05:30:20;;;;;;;15.27;10.47;;;;;;;;;;5020108;28;21187;-61
2023/07/03 05:32:50;;;;;;;18.03;9.83;;;;;;;;;;5015937;28;20669;-62
2023/07/03 05:35:19;;;;;;;12.97;9.03;;;;;;;;;;5013588;28;20604;-62
2023/07/03 05:37:47;;;;;;;14.17;9.10;;;;;;;;;;5016099;28;20620;-62
2023/07/03 05:40:16;;;;;;;15.40;8.90;;;;;;;;;;5020836;28;20628;-63
2023/07/03 05:42:44;;;;;;;17.23;8.77;;;;;;;;;;5011876;28;20639;-64
2023/07/03 05:45:13;;;;;;;14.85;9.20;;;;;;;;;;5019613;28;20804;-62
2023/07/03 05:47:41;;;;;;;19.20;9.70;;;;;;;;;;5017219;28;20257;-64
2023/07/03 05:50:11;;;;;;;17.50;9.30;;;;;;;;;;5021380;28;20720;-64
2023/07/03 05:52:41;;;;;;;21.37;9.47;;;;;;;;;;5037485;28;20727;-64
2023/07/03 05:55:11;;;;;;;15.67;9.50;;;;;;;;;;5036125;28;20582;-65
2023/07/03 05:57:39;;;;;;;14.13;8.87;;;;;;;;;;5036254;28;20632;-65
2023/07/03 06:00:12;;;;;;;15.03;7.63;;;;;;;;;;5036201;28;20616;-65
2023/07/03 06:02:41;;;;;;;12.30;8.10;;;;;;;;;;5053805;28;20600;-68
2023/07/03 06:05:12;;;;;;;17.17;8.90;;;;;;;;;;5046267;28;20618;-66
2023/07/03 06:07:40;;;;;;;18.63;8.60;;;;;;;;;;5031966;28;21103;-65
2023/07/03 06:10:10;;;;;;;15.73;8.73;;;;;;;;;;5030519;28;20652;-66
2023/07/03 06:12:38;;;;;;;15.80;8.10;;;;;;;;;;5031875;28;20647;-66
2023/07/03 06:15:07;;;;;;;17.07;8.30;;;;;;;;;;5026616;28;20653;-67
2023/07/03 06:17:36;;;;;;;14.57;7.10;;;;;;;;;;5011210;28;20657;-65
2023/07/03 06:20:05;;;;;;;17.53;8.50;;;;;;;;;;5014159;28;20643;-65
2023/07/03 06:22:35;;;;;;;19.80;7.70;;;;;;;;;;5012897;28;20653;-66
2023/07/03 06:25:03;;;;;;;11.37;6.73;;;;;;;;;;5012080;28;20608;-67
2023/07/03 06:27:31;;;;;;;10.90;6.63;;;;;;;;;;5011618;28;20645;-67
2023/07/03 06:29:59;;;;;;;15.60;7.00;;;;;;;;;;5010179;28;20653;-64
2023/07/03 06:32:28;;;;;;;13.80;7.30;;;;;;;;;;5011477;28;20652;-63
2023/07/03 06:34:56;;;;;;;18.43;7.67;;;;;;;;;;5014394;28;20629;-66
2023/07/03 06:37:24;;;;;;;12.37;7.90;;;;;;;;;;5032128;28;20596;-67
2023/07/03 06:39:54;;;;;;;17.63;7.27;;;;;;;;;;5013729;28;20654;-66
2023/07/03 06:42:22;;;;;;;15.17;6.70;;;;;;;;;;5010458;28;21027;-65
2023/07/03 06:44:57;;;;;;;19.90;7.67;;;;;;;;;;5003978;28;20680;-65
2023/07/03 06:47:26;;;;;;;13.27;7.47;;;;;;;;;;5009262;28;20759;-66
2023/07/03 06:49:54;;;;;;;15.95;7.00;;;;;;;;;;5015924;28;20791;-63
2023/07/03 06:52:22;;;;;;;17.40;7.30;;;;;;;;;;5030588;28;20245;-62
2023/07/03 06:54:50;;;;;;;19.03;7.57;;;;;;;;;;5033276;28;21041;-61
2023/07/03 06:57:20;;;;;;;13.20;6.90;;;;;;;;;;5032208;28;20621;-63
2023/07/03 06:59:51;;;;;;;19.83;7.33;;;;;;;;;;5013573;28;20604;-62
2023/07/03 07:02:19;;;;;;;16.50;6.80;;;;;;;;;;5050923;28;20639;-62
2023/07/03 07:04:47;;;;;;;19.60;8.27;;;;;;;;;;5048197;28;20640;-61
2023/07/03 07:07:16;;;;;;;12.20;6.83;;;;;;;;;;5034342;28;20636;-61
2023/07/03 07:09:44;;;;;;;12.10;6.47;;;;;;;;;;5028419;28;20669;-62
2023/07/03 07:12:12;;;;;;;9.30;5.97;;;;;;;;;;5028607;28;20637;-60
2023/07/03 07:14:41;;;;;;;17.50;6.73;;;;;;;;;;5026755;28;20637;-60
2023/07/03 07:17:10;;;;;;;12.67;7.20;;;;;;;;;;5027275;28;21046;-61
2023/07/03 07:19:38;;;;;;;13.30;6.37;;;;;;;;;;5029569;28;20616;-62
2023/07/03 07:22:06;;;;;;;13.30;6.05;;;;;;;;;;5027173;28;20792;-61
2023/07/03 07:24:34;;;;;;;12.00;5.93;;;;;;;;;;5030137;28;20242;-61
2023/07/03 07:27:05;;;;;;;12.53;6.20;;;;;;;;;;5031873;28;20647;-63
2023/07/03 07:29:34;;;;;;;12.63;5.87;;;;;;;;;;5026090;28;20636;-61
2023/07/03 07:32:03;;;;;;;13.43;5.23;;;;;;;;;;5027375;28;20655;-62
2023/07/03 07:34:32;;;;;;;14.90;7.27;;;;;;;;;;5025688;28;21164;-62
2023/07/03 07:37:00;;;;;;;12.10;6.03;;;;;;;;;;5029243;28;20648;-62
2023/07/03 07:39:28;;;;;;;12.43;6.53;;;;;;;;;;5022147;28;20680;-62
2023/07/03 07:41:57;;;;;;;7.93;6.07;;;;;;;;;;5019260;28;20692;-63
2023/07/03 07:44:26;;;;;;;7.50;5.37;;;;;;;;;;5015834;28;20680;-64
2023/07/03 07:46:54;;;;;;;12.27;6.40;;;;;;;;;;5018536;28;20682;-61
2023/07/03 07:49:24;;;;;;;7.80;5.43;;;;;;;;;;5020980;28;21096;-65
2023/07/03 07:51:52;;;;;;;22.27;6.60;;;;;;;;;;5019513;28;20703;-64
2023/07/03 07:54:20;;;;;;;12.37;6.40;;;;;;;;;;5017162;28;20667;-65
2023/07/03 07:56:48;;;;;;;8.20;5.10;;;;;;;;;;5016260;28;20619;-65
2023/07/03 07:59:17;;;;;;;9.93;5.93;;;;;;;;;;5034302;28;20730;-65
2023/07/03 08:01:45;;;;;;;8.80;5.40;;;;;;;;;;5036034;28;20677;-65
2023/07/03 08:04:13;;;;;;;6.73;4.97;;;;;;;;;;5034402;28;20597;-65
2023/07/03 08:06:43;;;;;;;9.50;4.73;;;;;;;;;;5038080;28;20715;-64
2023/07/03 08:09:11;;;;;;;7.37;5.10;;;;;;;;;;5041557;28;20695;-65
2023/07/03 08:11:41;;;;;;;9.97;5.43;;;;;;;;;;5014745;28;20665;-65
2023/07/03 08:14:09;;;;;;;6.80;4.67;;;;;;;;;;4999274;28;20642;-64
2023/07/03 08:16:38;;;;;;;8.10;5.73;;;;;;;;;;5018777;28;20684;-64
2023/07/03 08:19:06;;;;;;;6.77;4.93;;;;;;;;;;5012757;28;20617;-65
2023/07/03 08:21:34;;;;;;;9.70;5.17;;;;;;;;;;4995809;28;20609;-65
2023/07/03 08:24:04;;;;;;;5.93;4.53;;;;;;;;;;4997160;28;20621;-66
2023/07/03 08:26:32;;;;;;;11.83;4.60;;;;;;;;;;4998348;28;20752;-66
2023/07/03 08:29:00;;;;;;;10.97;5.50;;;;;;;;;;4998260;28;20720;-65
2023/07/03 08:31:28;;;;;;;4.40;4.00;;;;;;;;;;5001423;28;20613;-65
2023/07/03 08:33:57;;;;;;;7.10;4.63;;;;;;;;;;5003348;28;20709;-66
2023/07/03 08:36:25;;;;;;;4.20;3.80;;;;;;;;;;5016066;28;20618;-66
2023/07/03 08:38:53;;;;;;;8.30;4.07;;;;;;;;;;5014607;28;20649;-65
2023/07/03 08:41:23;;;;;;;10.53;5.03;;;;;;;;;;5013474;28;20641;-65
2023/07/03 08:43:54;;;;;;;11.93;4.63;;;;;;;;;;5011657;28;20656;-65
2023/07/03 08:46:25;;;;;;;7.10;5.03;;;;;;;;;;5012736;28;20601;-65
2023/07/03 08:48:56;;;;;;;7.07;4.70;;;;;;;;;;5013099;28;20673;-65
2023/07/03 08:51:26;;;;;;;6.53;4.40;;;;;;;;;;5015385;28;20586;-67
2023/07/03 08:53:56;;;;;;;11.10;4.50;;;;;;;;;;5016792;28;20653;-66
2023/07/03 08:56:28;;;;;;;7.23;4.50;;;;;;;;;;5017237;28;20645;-66
2023/07/03 08:58:57;;;;;;;5.83;4.30;;;;;;;;;;5008638;28;20684;-63
2023/07/03 09:01:28;;;;;;;8.33;4.87;;;;;;;;;;4997269;28;20712;-62
2023/07/03 09:04:01;;;;;;;6.60;4.37;;;;;;;;;;4997586;28;20736;-64
2023/07/03 09:06:34;;;;;;;7.07;4.50;;;;;;;;;;4997114;28;20582;-62
2023/07/03 09:09:07;;;;;;;6.13;4.37;;;;;;;;;;4998279;28;20987;-62
2023/07/03 09:11:39;;;;;;;7.00;4.80;;;;;;;;;;5001075;28;20669;-63
2023/07/03 09:14:09;;;;;;;8.53;5.10;;;;;;;;;;5000789;28;20697;-63
2023/07/03 09:16:38;;;;;;;5.23;4.47;;;;;;;;;;4999245;28;20652;-61
2023/07/03 09:19:10;;;;;;;9.83;4.97;;;;;;;;;;4998048;28;20628;-63
2023/07/03 09:21:38;;;;;;;6.57;4.67;;;;;;;;;;5005279;28;20654;-62
2023/07/03 09:24:10;;;;;;;6.70;5.30;;;;;;;;;;4998468;28;20700;-64
2023/07/03 09:26:42;;;;;;;7.23;3.93;;;;;;;;;;4995805;28;20586;-65
2023/07/03 09:29:11;;;;;;;6.63;4.60;;;;;;;;;;4998289;28;20681;-64
2023/07/03 09:31:40;;;;;;;7.53;4.50;;;;;;;;;;4996674;28;20622;-63
2023/07/03 09:34:08;;;;;;;11.10;4.83;;;;;;;;;;5001572;28;20745;-64
2023/07/03 09:36:38;;;;;;;7.30;4.50;;;;;;;;;;5000146;28;20701;-64
2023/07/03 09:39:07;;;;;;;8.97;4.20;;;;;;;;;;5000534;28;20725;-65
2023/07/03 09:41:36;;;;;;;5.33;4.73;;;;;;;;;;4999267;28;20700;-66
2023/07/03 09:44:09;;;;;;;4.63;4.10;;;;;;;;;;5000101;28;21038;-64
2023/07/03 09:46:38;;;;;;;9.70;4.97;;;;;;;;;;4994296;28;20582;-64
2023/07/03 09:49:09;;;;;;;4.77;4.20;;;;;;;;;;4993745;28;20687;-65
2023/07/03 09:51:38;;;;;;;5.93;4.07;;;;;;;;;;4995384;28;20590;-64
2023/07/03 09:54:08;;;;;;;11.30;4.87;;;;;;;;;;4993103;28;20695;-65
2023/07/03 09:56:37;;;;;;;7.40;4.90;;;;;;;;;;4995811;28;20628;-63
2023/07/03 09:59:06;;;;;;;10.50;5.33;;;;;;;;;;4996497;28;20689;-65
2023/07/03 10:01:39;;;;;;;6.93;4.30;;;;;;;;;;5002044;28;20601;-65
2023/07/03 10:04:08;;;;;;;5.37;3.80;;;;;;;;;;4995359;28;20594;-64
2023/07/03 10:06:37;;;;;;;5.50;3.97;;;;;;;;;;4995452;28;20968;-63
2023/07/03 10:09:06;;;;;;;6.03;3.73;;;;;;;;;;4993785;28;20618;-64
2023/07/03 10:11:40;;;;;;;7.47;4.23;;;;;;;;;;4996520;28;21350;-64
2023/07/03 10:14:10;;;;;;;8.73;4.73;;;;;;;;;;5013049;28;20652;-64
2023/07/03 10:16:41;;;;;;;4.83;4.20;;;;;;;;;;5015540;28;20619;-64
2023/07/03 10:19:10;;;;;;;4.93;4.10;;;;;;;;;;5013428;28;20577;-64
2023/07/03 10:21:39;;;;;;;7.23;4.07;;;;;;;;;;5018756;28;20715;-64
2023/07/03 10:24:09;;;;;;;6.60;4.50;;;;;;;;;;5013526;28;20605;-64
2023/07/03 10:26:40;;;;;;;9.90;4.90;;;;;;;;;;5014534;28;20709;-64
2023/07/03 10:29:12;;;;;;;11.30;4.37;;;;;;;;;;5014575;28;20600;-63
2023/07/03 10:31:46;;;;;;;8.93;4.77;;;;;;;;;;5012032;28;20654;-63
2023/07/03 10:34:16;;;;;;;6.63;3.87;;;;;;;;;;5003906;28;20660;-65
2023/07/03 10:36:49;;;;;;;8.23;4.40;;;;;;;;;;4992659;28;21194;-65
2023/07/03 10:39:20;;;;;;;8.63;4.13;;;;;;;;;;4992820;28;20663;-63
2023/07/03 10:41:50;;;;;;;5.37;4.60;;;;;;;;;;4993481;28;20655;-63
2023/07/03 10:44:20;;;;;;;4.23;3.90;;;;;;;;;;4992476;28;21194;-63
2023/07/03 10:46:52;;;;;;;7.23;3.70;;;;;;;;;;4991786;28;21155;-64
2023/07/03 10:49:24;;;;;;;6.43;4.47;;;;;;;;;;4992392;28;20707;-63
2023/07/03 10:51:56;;;;;;;9.00;4.10;;;;;;;;;;4992242;28;20625;-63
2023/07/03 10:54:28;;;;;;;4.50;3.60;;;;;;;;;;4992748;28;20648;-63
2023/07/03 10:56:57;;;;;;;5.60;3.90;;;;;;;;;;4991016;28;20594;-63
2023/07/03 10:59:28;;;;;;;6.43;3.80;;;;;;;;;;5009692;28;20845;-63
2023/07/03 11:02:02;;;;;;;6.37;3.93;;;;;;;;;;5001752;28;20684;-64
2023/07/03 11:04:36;;;;;;;5.77;4.80;;;;;;;;;;5019308;28;20676;-64
2023/07/03 11:07:08;;;;;;;5.03;4.37;;;;;;;;;;5023452;28;20727;-65
2023/07/03 11:09:41;;;;;;;5.10;4.20;;;;;;;;;;5020340;28;20684;-64
2023/07/03 11:12:15;;;;;;;6.50;4.50;;;;;;;;;;5012935;28;20708;-64
2023/07/03 11:14:49;;;;;;;5.97;4.37;;;;;;;;;;5020081;28;21077;-65
2023/07/03 11:17:25;;;;;;;4.83;4.30;;;;;;;;;;5018006;28;20680;-65
2023/07/03 11:19:57;;;;;;;5.10;4.10;;;;;;;;;;5022282;28;20689;-64
2023/07/03 11:22:26;;;;;;;4.80;4.20;;;;;;;;;;5031090;28;20726;-65
2023/07/03 11:25:01;;;;;;;4.67;4.27;;;;;;;;;;5035281;28;20680;-64
2023/07/03 11:27:33;;;;;;;7.50;4.10;;;;;;;;;;5025369;28;20615;-64
2023/07/03 11:30:02;;;;;;;7.20;4.53;;;;;;;;;;5021880;28;20700;-64
2023/07/03 11:32:34;;;;;;;4.63;4.03;;;;;;;;;;5028447;28;20731;-65
2023/07/03 11:35:03;;;;;;;6.23;4.50;;;;;;;;;;5017789;28;20987;-64
2023/07/03 11:37:37;;;;;;;4.83;4.53;;;;;;;;;;5025741;28;20692;-64
2023/07/03 11:40:24;;;;;;;5.80;4.50;;;;;;;;;;5020052;28;20735;-66
2023/07/03 11:42:55;;;;;;;5.03;4.53;;;;;;;;;;5021816;28;20704;-65
2023/07/03 11:45:27;;;;;;;8.30;5.00;;;;;;;;;;5019105;28;21778;-65
2023/07/03 11:47:57;;;;;;;4.70;4.20;;;;;;;;;;5018704;28;20674;-65
2023/07/03 11:50:30;;;;;;;4.63;4.20;;;;;;;;;;5013055;28;21326;-63
2023/07/03 11:52:59;;;;;;;4.37;3.93;;;;;;;;;;5014069;28;20596;-65
2023/07/03 11:55:36;;;;;;;4.50;4.10;;;;;;;;;;5012687;28;21064;-65
2023/07/03 11:58:04;;;;;;;4.13;3.83;;;;;;;;;;5011132;28;20604;-65
2023/07/03 12:00:34;;;;;;;4.90;4.47;;;;;;;;;;4998328;28;20622;-65
2023/07/03 12:03:04;;;;;;;4.20;3.90;;;;;;;;;;4996615;28;20659;-65
2023/07/03 12:05:52;;;;;;;6.97;4.20;;;;;;;;;;5012614;28;20588;-65
2023/07/03 12:08:39;;;;;;;3.83;3.60;;;;;;;;;;5001875;28;20592;-65
2023/07/03 12:11:07;;;;;;;4.10;3.73;;;;;;;;;;5013830;28;20652;-66
2023/07/03 12:13:37;;;;;;;4.43;4.03;;;;;;;;;;5014363;28;20627;-66
2023/07/03 12:16:06;;;;;;;5.20;4.60;;;;;;;;;;5014655;28;20656;-64
2023/07/03 12:18:36;;;;;;;4.20;3.97;;;;;;;;;;5015590;28;20690;-66
2023/07/03 12:21:05;;;;;;;4.73;4.33;;;;;;;;;;5015005;28;21173;-68
2023/07/03 12:23:35;;;;;;;4.20;3.90;;;;;;;;;;5014207;28;20619;-66
2023/07/03 12:26:04;;;;;;;4.97;4.40;;;;;;;;;;5014850;28;20624;-64
2023/07/03 12:28:32;;;;;;;4.07;3.80;;;;;;;;;;5013892;28;20616;-63
2023/07/03 12:31:11;;;;;;;7.80;4.30;;;;;;;;;;5011984;28;20617;-65
2023/07/03 12:33:49;;;;;;;4.20;3.90;;;;;;;;;;5014635;28;20585;-64
2023/07/03 12:36:21;;;;;;;4.57;4.00;;;;;;;;;;4993432;28;21219;-64
2023/07/03 12:38:50;;;;;;;6.87;4.20;;;;;;;;;;4994703;28;20582;-64
2023/07/03 12:41:23;;;;;;;4.23;3.83;;;;;;;;;;4994451;28;21175;-65
2023/07/03 12:43:51;;;;;;;4.30;3.90;;;;;;;;;;4995303;28;20586;-65
2023/07/03 12:46:26;;;;;;;6.10;3.73;;;;;;;;;;4994244;28;20679;-64
2023/07/03 12:49:04;;;;;;;4.53;3.70;;;;;;;;;;4996887;28;20641;-65
2023/07/03 12:51:36;;;;;;;3.77;3.50;;;;;;;;;;5019981;28;20600;-66
2023/07/03 12:54:04;;;;;;;4.30;3.63;;;;;;;;;;5017980;28;20622;-65
2023/07/03 12:56:33;;;;;;;3.77;3.57;;;;;;;;;;5012923;28;20656;-66
2023/07/03 12:59:01;;;;;;;4.07;3.87;;;;;;;;;;5015384;28;21174;-65
2023/07/03 13:01:31;;;;;;;4.83;4.40;;;;;;;;;;5011671;28;20625;-66
2023/07/03 13:03:59;;;;;;;3.70;3.40;;;;;;;;;;5013608;28;20681;-65
2023/07/03 13:06:30;;;;;;;4.10;3.50;;;;;;;;;;5013400;28;20619;-65
2023/07/03 13:08:59;;;;;;;5.90;3.70;;;;;;;;;;5013853;28;20581;-65
2023/07/03 13:11:38;;;;;;;4.23;3.63;;;;;;;;;;5002616;28;20718;-63
2023/07/03 13:14:11;;;;;;;4.10;3.90;;;;;;;;;;5012573;28;20589;-65
2023/07/03 13:16:39;;;;;;;4.47;4.07;;;;;;;;;;5013063;28;21054;-64
2023/07/03 13:19:07;;;;;;;5.20;4.10;;;;;;;;;;5012426;28;20635;-64
2023/07/03 13:21:37;;;;;;;4.50;4.10;;;;;;;;;;5012890;28;20982;-64
2023/07/03 13:24:07;;;;;;;5.13;4.17;;;;;;;;;;5012746;28;20609;-66
2023/07/03 13:26:36;;;;;;;4.37;4.03;;;;;;;;;;5013244;28;20994;-66
2023/07/03 13:29:05;;;;;;;4.77;4.00;;;;;;;;;;5004908;28;20637;-65
2023/07/03 13:31:34;;;;;;;3.87;3.60;;;;;;;;;;5012931;28;20621;-65
2023/07/03 13:34:06;;;;;;;4.23;3.83;;;;;;;;;;5014704;28;20675;-65
2023/07/03 13:36:36;;;;;;;5.13;3.87;;;;;;;;;;5013301;28;20698;-65
2023/07/03 13:39:07;;;;;;;4.33;3.87;;;;;;;;;;5013383;28;20620;-66
2023/07/03 13:41:35;;;;;;;4.80;4.00;;;;;;;;;;5012450;28;20589;-65
2023/07/03 13:44:05;;;;;;;4.57;4.27;;;;;;;;;;5012866;28;20989;-65
2023/07/03 13:46:34;;;;;;;3.70;3.50;;;;;;;;;;5006414;28;21238;-64
2023/07/03 13:49:02;;;;;;;4.07;3.87;;;;;;;;;;5011912;28;20660;-64
2023/07/03 13:51:31;;;;;;;4.10;3.70;;;;;;;;;;5010715;28;20625;-64
2023/07/03 13:53:59;;;;;;;5.83;4.10;;;;;;;;;;5012284;28;21220;-63
2023/07/03 13:56:30;;;;;;;3.47;3.37;;;;;;;;;;5011146;28;20667;-64
2023/07/03 13:58:58;;;;;;;3.93;3.73;;;;;;;;;;5014879;28;20658;-63
2023/07/03 14:01:26;;;;;;;4.77;4.47;;;;;;;;;;5008184;28;20995;-64
2023/07/03 14:03:54;;;;;;;4.10;3.90;;;;;;;;;;5016455;28;20633;-64
2023/07/03 14:06:23;;;;;;;4.23;3.70;;;;;;;;;;5016224;28;20960;-65
2023/07/03 14:08:51;;;;;;;4.33;3.93;;;;;;;;;;5022394;28;21206;-64
2023/07/03 14:11:19;;;;;;;3.97;3.70;;;;;;;;;;5009953;28;21007;-64
2023/07/03 14:13:49;;;;;;;4.70;3.83;;;;;;;;;;5011395;28;20635;-64
2023/07/03 14:16:18;;;;;;;3.67;3.57;;;;;;;;;;5012001;28;21033;-65
2023/07/03 14:18:46;;;;;;;3.57;3.40;;;;;;;;;;5008435;28;20625;-65
2023/07/03 14:21:15;;;;;;;4.33;3.90;;;;;;;;;;5011547;28;20635;-66
2023/07/03 14:23:44;;;;;;;4.27;3.97;;;;;;;;;;5010656;28;20628;-66
2023/07/03 14:26:13;;;;;;;4.23;3.93;;;;;;;;;;5010923;28;21257;-65
2023/07/03 14:28:41;;;;;;;4.00;3.60;;;;;;;;;;5011028;28;20608;-65
2023/07/03 14:31:12;;;;;;;7.63;3.90;;;;;;;;;;5009662;28;21000;-65
2023/07/03 14:33:40;;;;;;;4.00;3.80;;;;;;;;;;5011953;28;20587;-65
2023/07/03 14:36:09;;;;;;;4.63;4.10;;;;;;;;;;5008288;28;21222;-64
2023/07/03 14:38:37;;;;;;;4.10;3.70;;;;;;;;;;4991984;28;20614;-64
2023/07/03 14:41:05;;;;;;;4.53;4.33;;;;;;;;;;4992443;28;20974;-65
2023/07/03 14:43:34;;;;;;;4.70;4.40;;;;;;;;;;4995235;28;20627;-65
2023/07/03 14:46:02;;;;;;;4.37;4.07;;;;;;;;;;4992221;28;20622;-64